This is the latest recevied weather packets stored in our database for station/object AF5AA. If no packets are shown the sender has not sent any weather packets the latest 10 day(s).
| Time | Temp. | Humidity | Pressure | Rain* | Wind** | Luminosity | Snow |
|---|---|---|---|---|---|---|---|
| 1778118494 | 16.11° C | 95% | 1012.9 hPa | 0 mm | - | 0 W/m² | - |
| 1778118190 | 16.11° C | 95% | 1012.9 hPa | 0 mm | - | 0 W/m² | - |
| 1778117887 | 16.11° C | 95% | 1013 hPa | 0 mm | - | 0 W/m² | - |
| 1778117584 | 16.11° C | 95% | 1013 hPa | 0 mm | - | 0 W/m² | - |
| 1778117281 | 16.11° C | 95% | 1012.8 hPa | 0 mm | - | 0 W/m² | - |
| 1778116977 | 16.11° C | 95% | 1012.9 hPa | 0 mm | - | 0 W/m² | - |
| 1778116675 | 16.11° C | 95% | 1012.5 hPa | 0 mm | - | 0 W/m² | - |
| 1778116371 | 16.11° C | 95% | 1012.8 hPa | 0 mm | - | 0 W/m² | - |
| 1778116070 | 16.11° C | 95% | 1012.5 hPa | 0 mm | - | 0 W/m² | - |
| 1778115767 | 16.11° C | 95% | 1012.6 hPa | 0 mm | - | 0 W/m² | - |
| 1778115464 | 16.11° C | 95% | 1012.3 hPa | 0 mm | - | 0 W/m² | - |
| 1778115161 | 16.11° C | 95% | 1012.3 hPa | 0 mm | - | 0 W/m² | - |
| 1778114857 | 16.11° C | 95% | 1012.1 hPa | 0 mm | - | 1 W/m² | - |
| 1778114555 | 16.67° C | 95% | 1012.3 hPa | 0 mm | - | 1 W/m² | - |
| 1778114251 | 16.67° C | 95% | 1011.9 hPa | 0 mm | - | 2 W/m² | - |
| 1778113946 | 16.67° C | 95% | 1012.3 hPa | 0 mm | - | 2 W/m² | - |
| 1778113643 | 16.11° C | 94% | 1012.1 hPa | 0 mm | - | 2 W/m² | - |
| 1778113339 | 16.67° C | 94% | 1011.9 hPa | 0 mm | - | 3 W/m² | - |
| 1778113036 | 16.67° C | 94% | 1011.8 hPa | 0 mm | - | 4 W/m² | - |
| 1778112733 | 16.67° C | 94% | 1012.3 hPa | 0 mm | - | 3 W/m² | - |
| 1778112429 | 16.67° C | 93% | 1012.1 hPa | 0 mm | - | 3 W/m² | - |
| 1778112125 | 16.67° C | 93% | 1012.6 hPa | 0 mm | - | 2 W/m² | - |
| 1778111822 | 16.67° C | 93% | 1012.4 hPa | 0 mm | - | 5 W/m² | - |
| 1778111517 | 16.67° C | 93% | 1011.8 hPa | 0 mm | - | 10 W/m² | - |
| 1778111215 | 16.67° C | 93% | 1011.9 hPa | 0 mm | - | 7 W/m² | - |
* Rain latest hour (hover to see other rain measurements)
** Current wind speed in m/s (hover to see current wind gust speed)